createdAt,value
2019-02-20T00:00:08.086Z,1013.76
2019-02-20T00:01:08.078Z,1013.73
2019-02-20T00:02:08.066Z,1013.76
2019-02-20T00:03:08.060Z,1013.74
2019-02-20T00:04:08.046Z,1013.73
2019-02-20T00:05:08.030Z,1013.77
2019-02-20T00:06:08.033Z,1013.77
2019-02-20T00:07:08.009Z,1013.73
2019-02-20T00:08:08.000Z,1013.79
2019-02-20T00:09:07.995Z,1013.77
2019-02-20T00:10:07.978Z,1013.78
2019-02-20T00:11:07.967Z,1013.81
2019-02-20T00:12:07.956Z,1013.81
2019-02-20T00:13:07.943Z,1013.83
2019-02-20T00:14:07.933Z,1013.81
2019-02-20T00:15:08.262Z,1013.80
2019-02-20T00:16:07.912Z,1013.80
2019-02-20T00:17:07.899Z,1013.84
2019-02-20T00:18:07.888Z,1013.80
2019-02-20T00:19:07.878Z,1013.79
2019-02-20T00:20:07.866Z,1013.77
2019-02-20T00:21:08.130Z,1013.74
2019-02-20T00:22:07.843Z,1013.73
2019-02-20T00:23:07.836Z,1013.75
2019-02-20T00:24:07.821Z,1013.75
2019-02-20T00:25:07.813Z,1013.76
2019-02-20T00:26:07.799Z,1013.77
2019-02-20T00:27:08.116Z,1013.78
2019-02-20T00:28:07.781Z,1013.81
2019-02-20T00:29:07.768Z,1013.79
2019-02-20T00:30:07.757Z,1013.82
2019-02-20T00:31:07.745Z,1013.83
2019-02-20T00:32:07.740Z,1013.80
2019-02-20T00:33:08.006Z,1013.88
2019-02-20T00:34:08.247Z,1013.89
2019-02-20T00:35:07.702Z,1013.90
2019-02-20T00:36:07.690Z,1013.89
2019-02-20T00:37:07.680Z,1013.86
2019-02-20T00:38:07.682Z,1013.86
2019-02-20T00:39:07.677Z,1013.87
2019-02-20T00:40:07.654Z,1013.88
2019-02-20T00:41:07.633Z,1013.90
2019-02-20T00:42:07.624Z,1013.90
2019-02-20T00:43:07.615Z,1013.90
2019-02-20T00:44:07.599Z,1013.93
2019-02-20T00:45:07.858Z,1013.94
2019-02-20T00:46:07.582Z,1013.91
2019-02-20T00:47:07.567Z,1013.94
2019-02-20T00:48:07.559Z,1013.93
2019-02-20T00:49:07.544Z,1013.92
2019-02-20T00:50:07.551Z,1013.92
2019-02-20T00:51:09.671Z,1013.95
2019-02-20T00:52:07.512Z,1013.96
2019-02-20T00:53:07.500Z,1013.96
2019-02-20T00:54:09.288Z,1013.99
2019-02-20T00:55:07.479Z,1013.96
2019-02-20T00:56:07.467Z,1013.95
2019-02-20T00:57:07.741Z,1013.96
2019-02-20T00:58:07.445Z,1013.97
2019-02-20T00:59:07.433Z,1013.93
2019-02-20T01:00:07.431Z,1013.94
2019-02-20T01:01:07.414Z,1013.98
2019-02-20T01:02:07.400Z,1013.94
2019-02-20T01:03:07.399Z,1013.99
2019-02-20T01:04:07.381Z,1014.01
2019-02-20T01:05:07.370Z,1014.01
2019-02-20T01:06:07.357Z,1014.03
2019-02-20T01:07:07.348Z,1014.04
2019-02-20T01:08:07.336Z,1014.02
2019-02-20T01:09:07.601Z,1014.08
2019-02-20T01:10:07.314Z,1014.13
2019-02-20T01:11:07.301Z,1014.12
2019-02-20T01:12:07.290Z,1014.04
2019-02-20T01:13:07.281Z,1014.06
2019-02-20T01:14:07.267Z,1014.10
2019-02-20T01:15:07.279Z,1014.08
2019-02-20T01:16:07.246Z,1014.11
2019-02-20T01:17:07.236Z,1014.12
2019-02-20T01:18:07.225Z,1014.13
2019-02-20T01:19:07.212Z,1014.12
2019-02-20T01:20:07.202Z,1014.11
2019-02-20T01:21:07.221Z,1014.10
2019-02-20T01:22:07.179Z,1014.09
2019-02-20T01:23:07.168Z,1014.06
2019-02-20T01:24:07.158Z,1014.09
2019-02-20T01:25:07.147Z,1014.10
2019-02-20T01:26:07.137Z,1014.09
2019-02-20T01:27:07.404Z,1014.10
2019-02-20T01:28:07.114Z,1014.11
2019-02-20T01:29:07.103Z,1014.05
2019-02-20T01:30:07.091Z,1014.05
2019-02-20T01:31:07.081Z,1014.07
2019-02-20T01:32:07.072Z,1014.02
2019-02-20T01:33:07.381Z,1014.03
2019-02-20T01:34:07.046Z,1014.06
2019-02-20T01:35:07.037Z,1013.98
2019-02-20T01:36:07.027Z,1014.03
2019-02-20T01:37:07.014Z,1013.95
2019-02-20T01:38:07.005Z,1013.99
2019-02-20T01:39:07.017Z,1013.99
2019-02-20T01:40:06.983Z,1014.01
2019-02-20T01:41:06.969Z,1014.00
2019-02-20T01:42:06.959Z,1013.99
2019-02-20T01:43:06.950Z,1013.94
2019-02-20T01:44:06.941Z,1013.97
2019-02-20T01:45:07.214Z,1013.97
2019-02-20T01:46:06.915Z,1013.94
2019-02-20T01:47:06.903Z,1013.94
2019-02-20T01:48:06.892Z,1013.94
2019-02-20T01:49:06.881Z,1013.88
2019-02-20T01:50:06.870Z,1013.93
2019-02-20T01:51:07.138Z,1013.91
2019-02-20T01:52:06.848Z,1013.94
2019-02-20T01:53:10.203Z,1013.95
2019-02-20T01:54:06.825Z,1013.94
2019-02-20T01:55:06.820Z,1013.90
2019-02-20T01:56:06.803Z,1013.92
2019-02-20T01:57:06.814Z,1013.90
2019-02-20T01:58:06.782Z,1013.91
2019-02-20T01:59:06.771Z,1013.88
2019-02-20T02:00:06.774Z,1013.88
2019-02-20T02:01:06.752Z,1013.91
2019-02-20T02:02:06.738Z,1013.91
2019-02-20T02:03:06.737Z,1013.91
2019-02-20T02:04:06.717Z,1013.94
2019-02-20T02:05:14.901Z,1013.91
2019-02-20T02:06:07.691Z,1013.93
2019-02-20T02:07:06.683Z,1013.96
2019-02-20T02:08:06.672Z,1013.99
2019-02-20T02:09:07.030Z,1013.96
2019-02-20T02:10:06.650Z,1013.97
2019-02-20T02:11:06.637Z,1013.98
2019-02-20T02:12:06.630Z,1013.91
2019-02-20T02:13:06.620Z,1013.86
2019-02-20T02:14:06.606Z,1013.90
2019-02-20T02:15:06.603Z,1013.87
2019-02-20T02:16:06.582Z,1013.93
2019-02-20T02:17:06.572Z,1013.89
2019-02-20T02:18:06.561Z,1013.89
2019-02-20T02:19:06.549Z,1013.91
2019-02-20T02:20:06.540Z,1013.97
2019-02-20T02:21:06.548Z,1013.89
2019-02-20T02:22:06.517Z,1013.89
2019-02-20T02:23:06.509Z,1013.92
2019-02-20T02:24:06.495Z,1013.89
2019-02-20T02:25:06.489Z,1013.92
2019-02-20T02:26:10.867Z,1013.93
2019-02-20T02:27:06.749Z,1013.94
2019-02-20T02:28:06.451Z,1013.91
2019-02-20T02:29:06.441Z,1013.91
2019-02-20T02:30:06.435Z,1013.87
2019-02-20T02:31:06.417Z,1013.89
2019-02-20T02:32:06.407Z,1013.94
2019-02-20T02:33:06.666Z,1013.90
2019-02-20T02:34:06.384Z,1013.89
2019-02-20T02:35:06.375Z,1013.91
2019-02-20T02:36:06.402Z,1013.94
2019-02-20T02:37:06.356Z,1013.99
2019-02-20T02:38:06.344Z,1013.97
2019-02-20T02:39:06.616Z,1014.00
2019-02-20T02:40:06.319Z,1014.01
2019-02-20T02:41:06.307Z,1014.02
2019-02-20T02:42:06.296Z,1014.02
2019-02-20T02:43:06.285Z,1014.01
2019-02-20T02:44:06.278Z,1014.05
2019-02-20T02:45:06.278Z,1014.05
2019-02-20T02:46:06.258Z,1014.06
2019-02-20T02:47:06.247Z,1014.01
2019-02-20T02:48:06.233Z,1013.95
2019-02-20T02:49:06.219Z,1014.02
2019-02-20T02:50:06.207Z,1013.94
2019-02-20T02:51:06.207Z,1013.99
2019-02-20T02:52:06.188Z,1013.99
2019-02-20T02:53:06.174Z,1013.99
2019-02-20T02:54:06.166Z,1014.05
2019-02-20T02:55:06.152Z,1014.02
2019-02-20T02:56:06.141Z,1014.05
2019-02-20T02:57:06.151Z,1014.01
2019-02-20T02:58:06.119Z,1014.01
2019-02-20T02:59:06.109Z,1014.00
2019-02-20T03:00:06.105Z,1013.98
2019-02-20T03:01:06.086Z,1013.98
2019-02-20T03:02:06.100Z,1013.99
2019-02-20T03:03:06.351Z,1014.03
2019-02-20T03:04:06.053Z,1014.00
2019-02-20T03:05:06.042Z,1013.96
2019-02-20T03:06:06.034Z,1013.98
2019-02-20T03:07:06.027Z,1013.91
2019-02-20T03:08:06.009Z,1014.00
2019-02-20T03:09:06.280Z,1013.93
2019-02-20T03:10:05.993Z,1013.97
2019-02-20T03:11:05.976Z,1013.97
2019-02-20T03:12:05.965Z,1013.93
2019-02-20T03:13:05.964Z,1013.90
2019-02-20T03:14:05.942Z,1013.96
2019-02-20T03:15:06.214Z,1014.00
2019-02-20T03:16:05.920Z,1013.98
2019-02-20T03:17:05.910Z,1013.98
2019-02-20T03:18:05.899Z,1014.01
2019-02-20T03:19:05.887Z,1014.03
2019-02-20T03:20:05.877Z,1014.10
2019-02-20T03:21:06.141Z,1014.09
2019-02-20T03:22:05.855Z,1014.17
2019-02-20T03:23:05.850Z,1014.14
2019-02-20T03:24:05.833Z,1014.13
2019-02-20T03:25:05.822Z,1014.11
2019-02-20T03:26:05.811Z,1014.10
2019-02-20T03:27:05.827Z,1014.15
2019-02-20T03:28:05.788Z,1014.17
2019-02-20T03:29:05.777Z,1014.12
2019-02-20T03:30:05.772Z,1014.21
2019-02-20T03:31:05.771Z,1014.15
2019-02-20T03:32:05.746Z,1014.19
2019-02-20T03:33:06.012Z,1014.17
2019-02-20T03:34:08.719Z,1014.18
2019-02-20T03:35:05.711Z,1014.24
2019-02-20T03:36:05.703Z,1014.23
2019-02-20T03:37:05.689Z,1014.21
2019-02-20T03:38:05.680Z,1014.26
2019-02-20T03:39:05.687Z,1014.26
2019-02-20T03:40:05.657Z,1014.25
2019-02-20T03:41:05.645Z,1014.27
2019-02-20T03:42:05.635Z,1014.28
2019-02-20T03:43:05.641Z,1014.26
2019-02-20T03:44:05.610Z,1014.27
2019-02-20T03:45:06.000Z,1014.26
2019-02-20T03:46:05.590Z,1014.31
2019-02-20T03:47:05.580Z,1014.28
2019-02-20T03:48:05.567Z,1014.34
2019-02-20T03:49:05.558Z,1014.31
2019-02-20T03:50:05.547Z,1014.31
2019-02-20T03:51:05.812Z,1014.32
2019-02-20T03:52:05.523Z,1014.32
2019-02-20T03:53:05.522Z,1014.31
2019-02-20T03:54:05.502Z,1014.37
2019-02-20T03:55:05.491Z,1014.38
2019-02-20T03:56:05.480Z,1014.40
2019-02-20T03:57:05.476Z,1014.36
2019-02-20T03:58:05.457Z,1014.38
2019-02-20T03:59:05.446Z,1014.39
2019-02-20T04:00:05.441Z,1014.35
2019-02-20T04:01:05.425Z,1014.32
2019-02-20T04:02:05.418Z,1014.36
2019-02-20T04:03:05.676Z,1014.33
2019-02-20T04:04:05.391Z,1014.37
2019-02-20T04:05:05.379Z,1014.32
2019-02-20T04:06:05.367Z,1014.36
2019-02-20T04:07:05.359Z,1014.37
2019-02-20T04:08:05.346Z,1014.37
2019-02-20T04:09:05.616Z,1014.34
2019-02-20T04:10:05.324Z,1014.40
2019-02-20T04:11:05.312Z,1014.37
2019-02-20T04:12:05.327Z,1014.38
2019-02-20T04:13:05.298Z,1014.33
2019-02-20T04:14:05.289Z,1014.33
2019-02-20T04:15:05.954Z,1014.37
2019-02-20T04:16:05.264Z,1014.41
2019-02-20T04:17:05.246Z,1014.34
2019-02-20T04:18:05.237Z,1014.26
2019-02-20T04:19:05.227Z,1014.34
2019-02-20T04:20:05.213Z,1014.30
2019-02-20T04:21:05.538Z,1014.29
2019-02-20T04:22:05.193Z,1014.33
2019-02-20T04:23:05.191Z,1014.31
2019-02-20T04:24:05.167Z,1014.32
2019-02-20T04:25:05.157Z,1014.34
2019-02-20T04:26:05.150Z,1014.31
2019-02-20T04:27:05.406Z,1014.34
2019-02-20T04:28:05.142Z,1014.37
2019-02-20T04:29:05.114Z,1014.34
2019-02-20T04:30:05.103Z,1014.35
2019-02-20T04:31:05.092Z,1014.36
2019-02-20T04:32:05.081Z,1014.39
2019-02-20T04:33:05.344Z,1014.38
2019-02-20T04:34:05.071Z,1014.42
2019-02-20T04:35:05.048Z,1014.37
2019-02-20T04:36:05.053Z,1014.39
2019-02-20T04:37:05.031Z,1014.38
2019-02-20T04:38:05.014Z,1014.41
2019-02-20T04:39:05.024Z,1014.44
2019-02-20T04:40:05.003Z,1014.43
2019-02-20T04:41:04.982Z,1014.46
2019-02-20T04:42:04.971Z,1014.43
2019-02-20T04:43:04.962Z,1014.43
2019-02-20T04:44:04.949Z,1014.46
2019-02-20T04:45:04.944Z,1014.42
2019-02-20T04:46:04.927Z,1014.44
2019-02-20T04:47:04.914Z,1014.44
2019-02-20T04:48:04.905Z,1014.47
2019-02-20T04:49:04.894Z,1014.44
2019-02-20T04:50:04.881Z,1014.42
2019-02-20T04:51:05.157Z,1014.47
2019-02-20T04:52:04.875Z,1014.45
2019-02-20T04:53:04.863Z,1014.48
2019-02-20T04:54:12.916Z,1014.50
2019-02-20T04:55:05.824Z,1014.51
2019-02-20T04:56:04.821Z,1014.52
2019-02-20T04:57:05.083Z,1014.48
2019-02-20T04:58:04.795Z,1014.47
2019-02-20T04:59:04.783Z,1014.46
2019-02-20T05:00:04.773Z,1014.43
2019-02-20T05:01:04.767Z,1014.41
2019-02-20T05:02:04.750Z,1014.46
2019-02-20T05:03:05.017Z,1014.45
2019-02-20T05:04:04.728Z,1014.41
2019-02-20T05:05:04.716Z,1014.46
2019-02-20T05:06:04.706Z,1014.46
2019-02-20T05:07:04.708Z,1014.45
2019-02-20T05:08:04.683Z,1014.45
2019-02-20T05:09:04.730Z,1014.49
2019-02-20T05:10:04.663Z,1014.46
2019-02-20T05:11:04.650Z,1014.46
2019-02-20T05:12:04.640Z,1014.47
2019-02-20T05:13:04.627Z,1014.46
2019-02-20T05:14:04.638Z,1014.48
2019-02-20T05:15:04.631Z,1014.50
2019-02-20T05:16:04.595Z,1014.49
2019-02-20T05:17:04.583Z,1014.42
2019-02-20T05:18:04.572Z,1014.49
2019-02-20T05:19:04.563Z,1014.38
2019-02-20T05:20:04.592Z,1014.35
2019-02-20T05:21:05.470Z,1014.47
2019-02-20T05:22:04.529Z,1014.50
2019-02-20T05:23:04.517Z,1014.50
2019-02-20T05:24:04.510Z,1014.54
2019-02-20T05:25:04.553Z,1014.51
2019-02-20T05:26:04.487Z,1014.47
2019-02-20T05:27:04.762Z,1014.49
2019-02-20T05:28:04.469Z,1014.46
2019-02-20T05:29:04.451Z,1014.45
2019-02-20T05:30:04.445Z,1014.45
2019-02-20T05:31:04.428Z,1014.41
2019-02-20T05:32:04.418Z,1014.51
2019-02-20T05:33:04.687Z,1014.57
2019-02-20T05:34:04.394Z,1014.54
2019-02-20T05:35:04.385Z,1014.55
2019-02-20T05:36:04.373Z,1014.56
2019-02-20T05:37:04.371Z,1014.56
2019-02-20T05:38:04.352Z,1014.58
2019-02-20T05:39:04.633Z,1014.56
2019-02-20T05:40:04.336Z,1014.58
2019-02-20T05:41:04.318Z,1014.55
2019-02-20T05:42:04.307Z,1014.58
2019-02-20T05:43:04.309Z,1014.57
2019-02-20T05:44:04.285Z,1014.62
2019-02-20T05:45:04.555Z,1014.61
2019-02-20T05:46:04.263Z,1014.66
2019-02-20T05:47:04.250Z,1014.64
2019-02-20T05:48:04.241Z,1014.67
2019-02-20T05:49:04.270Z,1014.64
2019-02-20T05:50:04.220Z,1014.70
2019-02-20T05:51:04.498Z,1014.73
2019-02-20T05:52:04.212Z,1014.70
2019-02-20T05:53:04.187Z,1014.70
2019-02-20T05:54:04.173Z,1014.74
2019-02-20T05:55:04.181Z,1014.63
2019-02-20T05:56:04.152Z,1014.69
2019-02-20T05:57:04.415Z,1014.73
2019-02-20T05:58:04.129Z,1014.80
2019-02-20T05:59:04.119Z,1014.80
2019-02-20T06:00:04.114Z,1014.79
2019-02-20T06:01:04.096Z,1014.82
2019-02-20T06:02:04.087Z,1014.86
2019-02-20T06:03:05.125Z,1014.88
2019-02-20T06:04:04.063Z,1014.88
2019-02-20T06:05:04.052Z,1014.87
2019-02-20T06:06:04.064Z,1014.86
2019-02-20T06:07:04.032Z,1014.84
2019-02-20T06:08:04.084Z,1014.91
2019-02-20T06:09:04.302Z,1014.93
2019-02-20T06:10:03.999Z,1014.92
2019-02-20T06:11:14.406Z,1014.99
2019-02-20T06:12:04.973Z,1014.86
2019-02-20T06:13:03.964Z,1014.93
2019-02-20T06:14:03.952Z,1014.91
2019-02-20T06:15:04.236Z,1014.89
2019-02-20T06:16:03.933Z,1014.91
2019-02-20T06:17:03.920Z,1014.98
2019-02-20T06:18:03.912Z,1014.93
2019-02-20T06:19:03.901Z,1014.92
2019-02-20T06:20:03.894Z,1014.99
2019-02-20T06:21:04.155Z,1015.03
2019-02-20T06:22:03.862Z,1015.01
2019-02-20T06:23:03.854Z,1015.04
2019-02-20T06:24:03.851Z,1015.11
2019-02-20T06:25:03.854Z,1015.12
2019-02-20T06:26:03.858Z,1015.12
2019-02-20T06:27:03.818Z,1015.14
2019-02-20T06:28:03.802Z,1015.15
2019-02-20T06:29:03.788Z,1015.14
2019-02-20T06:30:03.775Z,1015.16
2019-02-20T06:31:03.765Z,1015.17
2019-02-20T06:32:03.755Z,1015.16
2019-02-20T06:33:04.035Z,1015.20
2019-02-20T06:34:03.731Z,1015.23
2019-02-20T06:35:03.721Z,1015.24
2019-02-20T06:36:03.712Z,1015.23
2019-02-20T06:37:03.699Z,1015.32
2019-02-20T06:38:03.699Z,1015.27
2019-02-20T06:39:03.953Z,1015.29
2019-02-20T06:40:03.668Z,1015.33
2019-02-20T06:41:03.655Z,1015.28
2019-02-20T06:42:03.646Z,1015.24
2019-02-20T06:43:03.641Z,1015.22
2019-02-20T06:44:03.622Z,1015.28
2019-02-20T06:45:03.875Z,1015.28
2019-02-20T06:46:03.612Z,1015.27
2019-02-20T06:47:03.587Z,1015.23
2019-02-20T06:48:03.576Z,1015.32
2019-02-20T06:49:03.567Z,1015.29
2019-02-20T06:50:03.555Z,1015.38
2019-02-20T06:51:03.867Z,1015.31
2019-02-20T06:52:03.537Z,1015.37
2019-02-20T06:53:03.522Z,1015.37
2019-02-20T06:54:03.513Z,1015.31
2019-02-20T06:55:03.499Z,1015.38
2019-02-20T06:56:03.487Z,1015.37
2019-02-20T06:57:03.485Z,1015.34
2019-02-20T06:58:03.467Z,1015.35
2019-02-20T06:59:03.454Z,1015.30
2019-02-20T07:00:03.446Z,1015.33
2019-02-20T07:01:03.433Z,1015.34
2019-02-20T07:02:03.423Z,1015.34
2019-02-20T07:03:03.700Z,1015.43
2019-02-20T07:04:03.402Z,1015.41
2019-02-20T07:05:03.389Z,1015.42
2019-02-20T07:06:03.379Z,1015.41
2019-02-20T07:07:03.367Z,1015.47
2019-02-20T07:08:03.357Z,1015.48
2019-02-20T07:09:03.614Z,1015.50
2019-02-20T07:10:03.334Z,1015.48
2019-02-20T07:11:03.322Z,1015.43
2019-02-20T07:12:03.320Z,1015.56
2019-02-20T07:13:03.300Z,1015.55
2019-02-20T07:14:03.297Z,1015.57
2019-02-20T07:15:03.577Z,1015.49
2019-02-20T07:16:03.268Z,1015.54
2019-02-20T07:17:03.256Z,1015.66
2019-02-20T07:18:03.246Z,1015.58
2019-02-20T07:19:03.233Z,1015.55
2019-02-20T07:20:03.223Z,1015.61
2019-02-20T07:21:03.488Z,1015.54
2019-02-20T07:22:03.205Z,1015.57
2019-02-20T07:23:03.192Z,1015.55
2019-02-20T07:24:03.181Z,1015.57
2019-02-20T07:25:03.791Z,1015.61
2019-02-20T07:26:03.156Z,1015.55
2019-02-20T07:27:03.433Z,1015.60
2019-02-20T07:28:03.134Z,1015.70
2019-02-20T07:29:03.124Z,1015.72
2019-02-20T07:30:03.116Z,1015.67
2019-02-20T07:31:03.101Z,1015.70
2019-02-20T07:32:03.090Z,1015.78
2019-02-20T07:33:03.361Z,1015.78
2019-02-20T07:34:05.443Z,1015.82
2019-02-20T07:35:03.065Z,1015.84
2019-02-20T07:36:03.060Z,1015.89
2019-02-20T07:37:03.035Z,1015.93
2019-02-20T07:38:03.030Z,1015.91
2019-02-20T07:39:03.291Z,1015.88
2019-02-20T07:40:03.002Z,1015.91
2019-02-20T07:41:02.997Z,1015.88
2019-02-20T07:42:02.982Z,1015.91
2019-02-20T07:43:02.969Z,1015.93
2019-02-20T07:44:02.957Z,1015.97
2019-02-20T07:45:03.235Z,1015.99
2019-02-20T07:46:02.940Z,1016.04
2019-02-20T07:47:02.925Z,1016.02
2019-02-20T07:48:02.913Z,1016.03
2019-02-20T07:49:02.902Z,1016.03
2019-02-20T07:50:02.891Z,1016.04
2019-02-20T07:51:02.887Z,1016.07
2019-02-20T07:52:02.868Z,1016.10
2019-02-20T07:53:02.857Z,1016.07
2019-02-20T07:54:02.851Z,1016.11
2019-02-20T07:55:12.566Z,1016.09
2019-02-20T07:56:04.100Z,1016.11
2019-02-20T07:57:02.814Z,1016.17
2019-02-20T07:58:02.802Z,1016.29
2019-02-20T07:59:02.798Z,1016.21
2019-02-20T08:00:02.784Z,1016.21
2019-02-20T08:01:02.768Z,1016.26
2019-02-20T08:02:03.037Z,1016.27
2019-02-20T08:03:02.751Z,1016.26
2019-02-20T08:04:02.741Z,1016.23
2019-02-20T08:05:02.732Z,1016.30
2019-02-20T08:06:02.713Z,1016.22
2019-02-20T08:07:02.702Z,1016.25
2019-02-20T08:08:02.970Z,1016.26
2019-02-20T08:09:02.681Z,1016.23
2019-02-20T08:10:02.684Z,1016.24
2019-02-20T08:11:02.701Z,1016.25
2019-02-20T08:12:02.646Z,1016.25
2019-02-20T08:13:02.642Z,1016.22
2019-02-20T08:14:02.893Z,1016.21
2019-02-20T08:15:02.613Z,1016.28
2019-02-20T08:16:02.604Z,1016.22
2019-02-20T08:17:02.595Z,1016.35
2019-02-20T08:18:02.580Z,1016.27
2019-02-20T08:19:02.570Z,1016.28
2019-02-20T08:20:02.848Z,1016.31
2019-02-20T08:21:02.548Z,1016.32
2019-02-20T08:22:02.544Z,1016.34
2019-02-20T08:23:02.527Z,1016.35
2019-02-20T08:24:02.514Z,1016.38
2019-02-20T08:25:02.508Z,1016.41
2019-02-20T08:26:02.867Z,1016.43
2019-02-20T08:27:02.481Z,1016.47
2019-02-20T08:28:02.471Z,1016.52
2019-02-20T08:29:02.460Z,1016.51
2019-02-20T08:30:02.461Z,1016.58
2019-02-20T08:31:02.439Z,1016.58
2019-02-20T08:32:02.721Z,1016.60
2019-02-20T08:33:02.436Z,1016.66
2019-02-20T08:34:02.404Z,1016.60
2019-02-20T08:35:02.399Z,1016.72
2019-02-20T08:36:02.386Z,1016.60
2019-02-20T08:37:02.371Z,1016.66
2019-02-20T08:38:02.652Z,1016.64
2019-02-20T08:39:02.350Z,1016.62
2019-02-20T08:40:02.338Z,1016.63
2019-02-20T08:41:02.332Z,1016.68
2019-02-20T08:42:02.318Z,1016.71
2019-02-20T08:43:02.304Z,1016.67
2019-02-20T08:44:03.515Z,1016.67
2019-02-20T08:45:02.283Z,1016.70
2019-02-20T08:46:02.272Z,1016.79
2019-02-20T08:47:02.260Z,1016.74
2019-02-20T08:48:02.248Z,1016.78
2019-02-20T08:49:02.242Z,1016.77
2019-02-20T08:50:02.514Z,1016.83
2019-02-20T08:51:02.215Z,1016.79
2019-02-20T08:52:02.216Z,1016.79
2019-02-20T08:53:02.195Z,1016.85
2019-02-20T08:54:04.350Z,1016.78
2019-02-20T08:55:02.173Z,1016.82
2019-02-20T08:56:02.498Z,1016.82
2019-02-20T08:57:02.152Z,1016.83
2019-02-20T08:58:02.149Z,1016.81
2019-02-20T08:59:02.127Z,1016.89
2019-02-20T09:00:02.153Z,1016.93
2019-02-20T09:01:02.106Z,1016.96
2019-02-20T09:02:02.132Z,1016.98
2019-02-20T09:03:02.120Z,1017.03
2019-02-20T09:04:02.075Z,1017.02
2019-02-20T09:05:02.062Z,1017.05
2019-02-20T09:06:02.051Z,1017.05
2019-02-20T09:07:02.040Z,1017.03
2019-02-20T09:08:02.353Z,1017.06
2019-02-20T09:09:02.018Z,1017.08
2019-02-20T09:10:02.013Z,1017.17
2019-02-20T09:11:01.995Z,1017.11
2019-02-20T09:12:01.984Z,1017.09
2019-02-20T09:13:01.972Z,1017.10
2019-02-20T09:14:01.970Z,1017.11
2019-02-20T09:15:01.951Z,1017.12
2019-02-20T09:16:01.945Z,1017.13
2019-02-20T09:17:01.929Z,1017.15
2019-02-20T09:18:01.920Z,1017.16
2019-02-20T09:19:01.906Z,1017.19
2019-02-20T09:20:01.906Z,1017.17
2019-02-20T09:21:01.889Z,1017.13
2019-02-20T09:22:01.875Z,1017.16
2019-02-20T09:23:01.867Z,1017.20
2019-02-20T09:24:01.856Z,1017.17
2019-02-20T09:25:01.839Z,1017.20
2019-02-20T09:26:02.171Z,1017.21
2019-02-20T09:27:01.878Z,1017.22
2019-02-20T09:28:01.815Z,1017.23
2019-02-20T09:29:01.796Z,1017.19
2019-02-20T09:30:01.787Z,1017.31
2019-02-20T09:31:01.773Z,1017.22
2019-02-20T09:32:02.158Z,1017.22
2019-02-20T09:33:01.752Z,1017.25
2019-02-20T09:34:01.739Z,1017.21
2019-02-20T09:35:01.730Z,1017.25
2019-02-20T09:36:01.719Z,1017.23
2019-02-20T09:37:01.708Z,1017.23
2019-02-20T09:38:01.970Z,1017.24
2019-02-20T09:39:01.686Z,1017.31
2019-02-20T09:40:01.675Z,1017.22
2019-02-20T09:41:01.663Z,1017.25
2019-02-20T09:42:01.652Z,1017.40
2019-02-20T09:43:01.640Z,1017.33
2019-02-20T09:44:01.950Z,1017.24
2019-02-20T09:45:01.630Z,1017.25
2019-02-20T09:46:01.608Z,1017.22
2019-02-20T09:47:01.597Z,1017.25
2019-02-20T09:48:01.586Z,1017.25
2019-02-20T09:49:01.575Z,1017.29
2019-02-20T09:50:01.606Z,1017.25
2019-02-20T09:51:01.552Z,1017.30
2019-02-20T09:52:01.546Z,1017.24
2019-02-20T09:53:01.532Z,1017.31
2019-02-20T09:54:01.520Z,1017.33
2019-02-20T09:55:01.508Z,1017.29
2019-02-20T09:56:02.177Z,1017.36
2019-02-20T09:57:01.485Z,1017.39
2019-02-20T09:58:01.475Z,1017.39
2019-02-20T09:59:01.469Z,1017.39
2019-02-20T10:00:01.459Z,1017.35
2019-02-20T10:01:02.991Z,1017.47
2019-02-20T10:02:01.709Z,1017.40
2019-02-20T10:03:01.420Z,1017.47
2019-02-20T10:04:01.408Z,1017.48
2019-02-20T10:05:01.399Z,1017.41
2019-02-20T10:06:01.386Z,1017.46
2019-02-20T10:07:01.376Z,1017.48
2019-02-20T10:08:01.692Z,1017.45
2019-02-20T10:09:01.352Z,1017.42
2019-02-20T10:10:01.343Z,1017.42
2019-02-20T10:11:01.330Z,1017.44
2019-02-20T10:12:01.318Z,1017.51
2019-02-20T10:13:01.308Z,1017.47
2019-02-20T10:14:01.618Z,1017.45
2019-02-20T10:15:01.287Z,1017.55
2019-02-20T10:16:01.279Z,1017.54
2019-02-20T10:17:01.264Z,1017.50
2019-02-20T10:18:01.253Z,1017.49
2019-02-20T10:19:01.242Z,1017.53
2019-02-20T10:20:01.505Z,1017.49
2019-02-20T10:21:01.253Z,1017.48
2019-02-20T10:22:01.223Z,1017.50
2019-02-20T10:23:01.201Z,1017.50
2019-02-20T10:24:01.187Z,1017.50
2019-02-20T10:25:01.175Z,1017.51
2019-02-20T10:26:01.355Z,1017.49
2019-02-20T10:27:01.207Z,1017.41
2019-02-20T10:28:01.141Z,1017.45
2019-02-20T10:29:01.131Z,1017.46
2019-02-20T10:30:01.120Z,1017.42
2019-02-20T10:31:01.109Z,1017.42
2019-02-20T10:32:01.380Z,1017.41
2019-02-20T10:33:01.087Z,1017.44
2019-02-20T10:34:01.075Z,1017.45
2019-02-20T10:35:01.067Z,1017.49
2019-02-20T10:36:01.059Z,1017.52
2019-02-20T10:37:01.042Z,1017.53
2019-02-20T10:38:01.054Z,1017.50
2019-02-20T10:39:01.021Z,1017.53
2019-02-20T10:40:01.011Z,1017.53
2019-02-20T10:41:00.999Z,1017.57
2019-02-20T10:42:00.987Z,1017.53
2019-02-20T10:43:00.977Z,1017.61
2019-02-20T10:44:00.975Z,1017.62
2019-02-20T10:45:00.954Z,1017.63
2019-02-20T10:46:00.943Z,1017.62
2019-02-20T10:47:00.934Z,1017.67
2019-02-20T10:48:00.921Z,1017.64
2019-02-20T10:49:00.924Z,1017.64
2019-02-20T10:50:00.928Z,1017.73
2019-02-20T10:51:00.888Z,1017.66
2019-02-20T10:52:00.877Z,1017.66
2019-02-20T10:53:00.871Z,1017.68
2019-02-20T10:54:00.855Z,1017.66
2019-02-20T10:55:00.873Z,1017.64
2019-02-20T10:56:08.964Z,1017.60
2019-02-20T10:57:01.827Z,1017.58
2019-02-20T10:58:00.828Z,1017.58
2019-02-20T10:59:00.808Z,1017.61
2019-02-20T11:00:00.788Z,1017.58
2019-02-20T11:01:00.777Z,1017.64
2019-02-20T11:02:01.053Z,1017.64
2019-02-20T11:03:00.755Z,1017.63
2019-02-20T11:04:00.745Z,1017.62
2019-02-20T11:05:00.733Z,1017.64
2019-02-20T11:06:00.722Z,1017.55
2019-02-20T11:07:00.710Z,1017.56
2019-02-20T11:08:01.008Z,1017.55
2019-02-20T11:09:00.689Z,1017.58
2019-02-20T11:10:00.679Z,1017.56
2019-02-20T11:11:00.674Z,1017.61
2019-02-20T11:12:00.655Z,1017.59
2019-02-20T11:13:00.652Z,1017.60
2019-02-20T11:14:00.919Z,1017.61
2019-02-20T11:15:00.622Z,1017.65
2019-02-20T11:16:00.614Z,1017.62
2019-02-20T11:17:00.603Z,1017.60
2019-02-20T11:18:00.606Z,1017.60
2019-02-20T11:19:00.579Z,1017.64
2019-02-20T11:20:00.885Z,1017.73
2019-02-20T11:21:00.556Z,1017.59
2019-02-20T11:22:00.546Z,1017.61
2019-02-20T11:23:00.540Z,1017.61
2019-02-20T11:24:01.228Z,1017.62
2019-02-20T11:25:00.511Z,1017.61
2019-02-20T11:26:00.779Z,1017.57
2019-02-20T11:27:00.490Z,1017.55
2019-02-20T11:28:00.488Z,1017.57
2019-02-20T11:29:00.469Z,1017.61
2019-02-20T11:30:00.456Z,1017.55
2019-02-20T11:31:00.450Z,1017.56
2019-02-20T11:32:00.707Z,1017.53
2019-02-20T11:33:00.423Z,1017.50
2019-02-20T11:34:01.815Z,1017.49
2019-02-20T11:35:00.402Z,1017.52
2019-02-20T11:36:00.394Z,1017.52
2019-02-20T11:37:00.381Z,1017.54
2019-02-20T11:38:00.390Z,1017.49
2019-02-20T11:39:00.357Z,1017.50
2019-02-20T11:40:00.350Z,1017.48
2019-02-20T11:41:00.334Z,1017.52
2019-02-20T11:42:00.325Z,1017.54
2019-02-20T11:43:00.314Z,1017.49
2019-02-20T11:44:00.607Z,1017.51
2019-02-20T11:45:00.291Z,1017.52
2019-02-20T11:46:00.282Z,1017.56
2019-02-20T11:47:00.269Z,1017.59
2019-02-20T11:48:00.258Z,1017.45
2019-02-20T11:49:00.246Z,1017.45
2019-02-20T11:50:00.519Z,1017.44
2019-02-20T11:51:00.225Z,1017.35
2019-02-20T11:52:00.215Z,1017.35
2019-02-20T11:53:00.202Z,1017.38
2019-02-20T11:54:00.194Z,1017.34
2019-02-20T11:55:00.286Z,1017.38
2019-02-20T11:56:00.462Z,1017.35
2019-02-20T11:57:00.171Z,1017.44
2019-02-20T11:58:00.965Z,1017.41
2019-02-20T11:59:00.136Z,1017.49
2019-02-20T12:00:00.204Z,1017.47
2019-02-20T12:01:00.115Z,1017.45
2019-02-20T12:02:00.113Z,1017.39
2019-02-20T12:03:00.092Z,1017.38
2019-02-20T12:04:00.081Z,1017.39
2019-02-20T12:05:00.154Z,1017.40